createdAt,value
2022-08-02T00:01:03.515Z,99106.59
2022-08-02T00:03:33.472Z,99102.53
2022-08-02T00:06:02.837Z,99096.84
2022-08-02T00:08:35.312Z,99104.03
2022-08-02T00:11:04.653Z,99104.38
2022-08-02T00:13:34.016Z,99108.34
2022-08-02T00:16:03.408Z,99108.88
2022-08-02T00:18:33.148Z,99110.75
2022-08-02T00:21:02.995Z,99115.03
2022-08-02T00:23:35.008Z,99110.31
2022-08-02T00:26:24.454Z,99101.47
2022-08-02T00:28:54.473Z,99110.59
2022-08-02T00:31:24.143Z,99111.41
2022-08-02T00:34:26.193Z,99110.59
2022-08-02T00:36:43.200Z,99108.53
2022-08-02T00:39:34.119Z,99111.44
2022-08-02T00:42:04.501Z,99108.56
2022-08-02T00:44:33.881Z,99114.72
2022-08-02T00:47:03.445Z,99111.13
2022-08-02T00:49:33.282Z,99115.91
2022-08-02T00:52:03.278Z,99116.72
2022-08-02T00:54:35.710Z,99107.28
2022-08-02T00:57:05.041Z,99106.66
2022-08-02T00:59:34.381Z,99100.47
2022-08-02T01:02:03.810Z,99108.00
2022-08-02T01:04:33.291Z,99095.91
2022-08-02T01:07:12.158Z,99101.06
2022-08-02T01:09:46.178Z,99100.25
2022-08-02T01:12:16.321Z,99101.88
2022-08-02T01:14:47.047Z,99098.06
2022-08-02T01:17:20.775Z,99110.91
2022-08-02T01:19:54.205Z,99100.97
2022-08-02T01:23:00.555Z,99112.16
2022-08-02T01:25:47.971Z,99108.06
2022-08-02T01:28:32.426Z,99110.19
2022-08-02T01:31:07.380Z,99104.97
2022-08-02T01:33:40.760Z,99112.09
2022-08-02T01:36:12.498Z,99108.03
2022-08-02T01:38:42.995Z,99106.97
2022-08-02T01:41:15.491Z,99109.66
2022-08-02T01:43:46.474Z,99108.38
2022-08-02T01:46:19.422Z,99110.00
2022-08-02T01:48:49.765Z,99113.41
2022-08-02T01:51:20.201Z,99123.50
2022-08-02T01:53:52.911Z,99122.44
2022-08-02T01:56:22.799Z,99121.38
2022-08-02T01:58:53.406Z,99117.31
2022-08-02T02:01:25.755Z,99123.44
2022-08-02T02:03:55.326Z,99119.28
2022-08-02T02:06:25.910Z,99125.06
2022-08-02T02:08:55.810Z,99122.38
2022-08-02T02:12:06.469Z,99132.28
2022-08-02T02:14:15.398Z,99122.31
2022-08-02T02:16:54.481Z,99125.28
2022-08-02T02:19:24.954Z,99129.44
2022-08-02T02:21:54.541Z,99129.34
2022-08-02T02:24:24.052Z,99118.72
2022-08-02T02:26:55.205Z,99110.66
2022-08-02T02:29:28.155Z,99115.81
2022-08-02T02:32:01.996Z,99110.22
2022-08-02T02:34:35.296Z,99106.25
2022-08-02T02:37:06.433Z,99101.44
2022-08-02T02:39:36.350Z,99104.50
2022-08-02T02:42:06.640Z,99103.06
2022-08-02T02:44:36.894Z,99106.00
2022-08-02T02:47:11.948Z,99106.25
2022-08-02T02:49:42.176Z,99107.06
2022-08-02T02:52:12.251Z,99108.22
2022-08-02T02:54:42.180Z,99101.94
2022-08-02T02:57:11.745Z,99094.88
2022-08-02T02:59:43.049Z,99115.47
2022-08-02T03:02:22.499Z,99112.34
2022-08-02T03:04:57.061Z,99112.94
2022-08-02T03:07:27.966Z,99113.94
2022-08-02T03:09:57.377Z,99110.88
2022-08-02T03:12:31.997Z,99118.41
2022-08-02T03:15:01.995Z,99124.56
2022-08-02T03:17:42.933Z,99126.13
2022-08-02T03:20:13.517Z,99121.47
2022-08-02T03:22:43.333Z,99125.63
2022-08-02T03:25:13.244Z,99128.09
2022-08-02T03:27:43.095Z,99124.81
2022-08-02T03:30:13.668Z,99123.28
2022-08-02T03:32:46.754Z,99125.50
2022-08-02T03:35:22.880Z,99117.78
2022-08-02T03:37:53.776Z,99112.75
2022-08-02T03:40:23.566Z,99108.00
2022-08-02T03:42:53.130Z,99111.50
2022-08-02T03:45:22.943Z,99114.44
2022-08-02T03:47:58.844Z,99114.78
2022-08-02T03:50:29.299Z,99109.63
2022-08-02T03:52:59.544Z,99107.94
2022-08-02T03:55:29.128Z,99101.44
2022-08-02T03:57:58.557Z,99096.88
2022-08-02T04:03:26.542Z,99106.72
2022-08-02T04:05:59.245Z,99109.47
2022-08-02T04:08:38.010Z,99108.28
2022-08-02T04:11:20.668Z,99108.41
2022-08-02T04:13:50.797Z,99110.75
2022-08-02T04:16:22.763Z,99114.25
2022-08-02T04:18:57.939Z,99114.84
2022-08-02T04:21:48.793Z,99118.34
2022-08-02T04:24:19.787Z,99107.63
2022-08-02T04:26:52.062Z,99111.50
2022-08-02T04:29:22.661Z,99110.31
2022-08-02T04:31:52.784Z,99112.81
2022-08-02T04:34:24.814Z,99123.25
2022-08-02T04:36:54.297Z,99121.06
2022-08-02T04:39:23.617Z,99127.00
2022-08-02T04:41:57.392Z,99126.84
2022-08-02T04:44:27.200Z,99132.13
2022-08-02T04:46:58.226Z,99132.03
2022-08-02T04:49:30.165Z,99137.13
2022-08-02T04:52:01.079Z,99136.41
2022-08-02T04:54:30.462Z,99139.84
2022-08-02T04:56:59.824Z,99142.69
2022-08-02T04:59:29.654Z,99141.56
2022-08-02T05:01:59.029Z,99135.47
2022-08-02T05:04:30.925Z,99140.03
2022-08-02T05:07:00.259Z,99146.94
2022-08-02T05:09:29.902Z,99137.53
2022-08-02T05:11:59.309Z,99143.63
2022-08-02T05:14:28.716Z,99142.66
2022-08-02T05:16:58.067Z,99137.47
2022-08-02T05:19:27.422Z,99138.16
2022-08-02T05:21:59.352Z,99139.81
2022-08-02T05:24:28.701Z,99132.88
2022-08-02T05:26:58.077Z,99135.09
2022-08-02T05:29:27.462Z,99132.97
2022-08-02T05:31:57.137Z,99136.53
2022-08-02T05:34:26.497Z,99142.84
2022-08-02T05:36:55.839Z,99132.19
2022-08-02T05:39:31.839Z,99145.59
2022-08-02T05:42:01.329Z,99135.56
2022-08-02T05:44:30.638Z,99136.00
2022-08-02T05:46:59.941Z,99146.97
2022-08-02T05:49:29.388Z,99149.59
2022-08-02T05:52:04.242Z,99144.91
2022-08-02T05:54:39.803Z,99143.34
2022-08-02T05:57:13.977Z,99139.66
2022-08-02T05:59:47.679Z,99145.84
2022-08-02T06:02:20.691Z,99154.72
2022-08-02T06:04:59.633Z,99160.59
2022-08-02T06:07:29.141Z,99156.91
2022-08-02T06:10:01.493Z,99156.59
2022-08-02T06:12:32.169Z,99144.72
2022-08-02T06:15:01.733Z,99137.13
2022-08-02T06:17:31.484Z,99141.78
2022-08-02T06:20:02.979Z,99146.88
2022-08-02T06:22:37.191Z,99141.75
2022-08-02T06:25:11.654Z,99147.44
2022-08-02T06:28:00.636Z,99145.59
2022-08-02T06:30:30.663Z,99144.34
2022-08-02T06:33:02.849Z,99145.72
2022-08-02T06:35:37.100Z,99156.06
2022-08-02T06:38:06.928Z,99158.56
2022-08-02T06:40:44.242Z,99154.16
2022-08-02T06:43:15.464Z,99148.50
2022-08-02T06:45:44.898Z,99150.16
2022-08-02T06:48:14.280Z,99151.88
2022-08-02T06:50:44.361Z,99161.44
2022-08-02T06:53:14.321Z,99156.66
2022-08-02T06:55:47.608Z,99157.84
2022-08-02T06:58:17.165Z,99151.84
2022-08-02T07:00:46.562Z,99150.97
2022-08-02T07:03:16.053Z,99154.44
2022-08-02T07:05:48.524Z,99154.44
2022-08-02T07:08:17.930Z,99149.38
2022-08-02T07:10:49.826Z,99144.31
2022-08-02T07:13:21.039Z,99143.00
2022-08-02T07:15:50.392Z,99146.88
2022-08-02T07:18:20.257Z,99139.31
2022-08-02T07:20:49.621Z,99146.88
2022-08-02T07:23:19.492Z,99139.94
2022-08-02T07:26:02.710Z,99138.34
2022-08-02T07:28:33.780Z,99131.13
2022-08-02T07:31:03.081Z,99140.84
2022-08-02T07:33:37.607Z,99144.63
2022-08-02T07:36:09.747Z,99135.75
2022-08-02T07:38:46.064Z,99139.25
2022-08-02T07:41:18.762Z,99132.00
2022-08-02T07:43:48.107Z,99126.03
2022-08-02T07:46:17.615Z,99121.75
2022-08-02T07:48:48.961Z,99133.63
2022-08-02T07:51:18.329Z,99118.28
2022-08-02T07:53:51.482Z,99124.19
2022-08-02T07:56:33.894Z,99130.69
2022-08-02T07:59:03.247Z,99129.06
2022-08-02T08:01:32.587Z,99129.34
2022-08-02T08:04:01.967Z,99121.50
2022-08-02T08:06:31.439Z,99130.38
2022-08-02T08:09:01.087Z,99117.44
2022-08-02T08:11:30.489Z,99114.69
2022-08-02T08:14:02.546Z,99111.94
2022-08-02T08:16:31.981Z,99104.13
2022-08-02T08:19:02.674Z,99101.94
2022-08-02T08:21:32.686Z,99092.91
2022-08-02T08:24:02.445Z,99103.91
2022-08-02T08:26:32.104Z,99103.06
2022-08-02T08:29:06.434Z,99098.19
2022-08-02T08:31:36.344Z,99099.53
2022-08-02T08:34:05.982Z,99104.09
2022-08-02T08:36:39.094Z,99108.06
2022-08-02T08:39:08.979Z,99103.91
2022-08-02T08:41:38.627Z,99101.88
2022-08-02T08:44:24.195Z,99113.31
2022-08-02T08:46:54.535Z,99115.84
2022-08-02T08:49:30.665Z,99120.34
2022-08-02T08:52:04.261Z,99111.72
2022-08-02T08:54:38.881Z,99100.78
2022-08-02T08:57:09.165Z,99110.09
2022-08-02T08:59:41.427Z,99102.75
2022-08-02T09:02:21.456Z,99101.38
2022-08-02T09:04:54.941Z,99101.56
2022-08-02T09:07:24.691Z,99105.38
2022-08-02T09:09:54.108Z,99109.75
2022-08-02T09:12:26.091Z,99109.06
2022-08-02T09:14:58.297Z,99107.88
2022-08-02T09:17:27.597Z,99110.09
2022-08-02T09:20:09.212Z,99101.03
2022-08-02T09:22:38.631Z,99100.91
2022-08-02T09:25:08.576Z,99102.59
2022-08-02T09:27:38.897Z,99099.81
2022-08-02T09:30:16.817Z,99105.97
2022-08-02T09:32:50.042Z,99098.66
2022-08-02T09:36:07.327Z,99106.84
2022-08-02T09:38:23.135Z,99106.75
2022-08-02T09:40:55.762Z,99102.88
2022-08-02T09:43:25.083Z,99095.97
2022-08-02T09:45:57.158Z,99097.16
2022-08-02T09:48:26.929Z,99091.88
2022-08-02T09:50:59.016Z,99091.41
2022-08-02T09:53:28.422Z,99091.16
2022-08-02T09:55:58.769Z,99089.94
2022-08-02T09:58:28.205Z,99088.47
2022-08-02T10:01:02.247Z,99083.53
2022-08-02T10:03:34.967Z,99083.41
2022-08-02T10:06:08.922Z,99085.81
2022-08-02T10:08:38.390Z,99082.13
2022-08-02T10:11:08.003Z,99074.59
2022-08-02T10:13:38.499Z,99071.28
2022-08-02T10:16:10.612Z,99069.19
2022-08-02T16:18:03.800Z,98825.47
2022-08-02T16:20:33.078Z,98829.97
2022-08-02T16:23:04.467Z,98827.91
2022-08-02T16:25:37.646Z,98825.22
2022-08-02T16:28:09.526Z,98827.13
2022-08-02T16:30:38.850Z,98820.94
2022-08-02T16:33:10.754Z,98829.22
2022-08-02T16:35:42.581Z,98819.25
2022-08-02T16:38:15.358Z,98813.88
2022-08-02T16:40:44.661Z,98820.63
2022-08-02T16:43:14.033Z,98811.63
2022-08-02T16:45:43.469Z,98817.16
2022-08-02T16:48:17.181Z,98821.63
2022-08-02T16:50:47.125Z,98815.81
2022-08-02T16:53:36.335Z,98816.63
2022-08-02T16:56:06.646Z,98811.88
2022-08-02T16:58:36.089Z,98813.94
2022-08-02T17:01:06.831Z,98813.66
2022-08-02T17:03:56.829Z,98809.03
2022-08-02T17:06:27.548Z,98807.50
2022-08-02T17:08:57.749Z,98806.72
2022-08-02T17:11:28.466Z,98805.28
2022-08-02T17:13:57.891Z,98811.22
2022-08-02T17:16:28.849Z,98809.88
2022-08-02T17:19:00.962Z,98808.16
2022-08-02T17:21:31.939Z,98810.88
2022-08-02T17:24:07.561Z,98812.47
2022-08-02T17:26:37.902Z,98814.88
2022-08-02T17:29:15.362Z,98809.25
2022-08-02T17:32:05.654Z,98818.56
2022-08-02T17:34:39.089Z,98811.22
2022-08-02T17:37:08.559Z,98817.13
2022-08-02T17:39:44.316Z,98820.50
2022-08-02T17:42:23.446Z,98815.00
2022-08-02T17:44:53.789Z,98818.19
2022-08-02T17:47:23.459Z,98814.84
2022-08-02T17:50:03.316Z,98802.16
2022-08-02T17:52:52.174Z,98808.66
2022-08-02T17:55:22.502Z,98807.44
2022-08-02T18:00:41.941Z,98808.09
2022-08-02T18:03:14.468Z,98805.38
2022-08-02T18:05:53.649Z,98806.06
2022-08-02T18:08:24.984Z,98803.84
2022-08-02T18:10:55.834Z,98801.97
2022-08-02T18:13:25.441Z,98799.13
2022-08-02T18:16:02.218Z,98810.50
2022-08-02T18:18:33.347Z,98804.06
2022-08-02T18:21:22.088Z,98802.41
2022-08-02T18:23:58.407Z,98806.34
2022-08-02T18:26:28.764Z,98799.44
2022-08-02T18:28:58.281Z,98804.31
2022-08-02T18:31:27.763Z,98803.84
2022-08-02T18:34:01.982Z,98806.25
2022-08-02T18:36:34.807Z,98810.44
2022-08-02T18:39:08.220Z,98810.28
2022-08-02T18:41:38.506Z,98808.66
2022-08-02T18:44:07.996Z,98806.09
2022-08-02T18:46:40.503Z,98801.13
2022-08-02T18:49:15.064Z,98801.75
2022-08-02T18:51:47.433Z,98801.22
2022-08-02T18:54:16.819Z,98799.94
2022-08-02T18:56:59.945Z,98808.88
2022-08-02T18:59:29.286Z,98810.63
2022-08-02T19:02:06.817Z,98809.78
2022-08-02T19:04:36.157Z,98811.38
2022-08-02T19:07:08.430Z,98807.00
2022-08-02T19:09:40.032Z,98809.38
2022-08-02T19:12:11.507Z,98812.19
2022-08-02T19:14:41.205Z,98813.47
2022-08-02T19:17:16.118Z,98805.91
2022-08-02T19:20:00.188Z,98812.78
2022-08-02T19:22:32.694Z,98812.31
2022-08-02T19:25:02.340Z,98811.28
2022-08-02T19:27:32.964Z,98812.31
2022-08-02T19:30:03.133Z,98811.47
2022-08-02T19:32:40.007Z,98816.34
2022-08-02T19:35:29.826Z,98818.97
2022-08-02T19:38:11.339Z,98817.50
2022-08-02T19:40:41.895Z,98823.50
2022-08-02T19:44:20.806Z,98823.72
2022-08-02T19:46:01.165Z,98828.59
2022-08-02T19:48:30.483Z,98834.03
2022-08-02T19:51:01.464Z,98831.13
2022-08-02T19:53:47.501Z,98835.44
2022-08-02T19:56:21.145Z,98840.09
2022-08-02T19:58:52.116Z,98840.88
2022-08-02T20:01:28.169Z,98842.31
2022-08-02T20:04:07.134Z,98847.34
2022-08-02T20:06:36.740Z,98847.97
2022-08-02T20:09:08.664Z,98851.28
2022-08-02T20:11:39.311Z,98848.22
2022-08-02T20:14:09.655Z,98850.59
2022-08-02T20:16:43.044Z,98847.16
2022-08-02T20:19:15.894Z,98838.53
2022-08-02T20:21:52.881Z,98847.69
2022-08-02T20:24:29.690Z,98843.84
2022-08-02T20:26:59.781Z,98851.28
2022-08-02T20:29:43.682Z,98853.25
2022-08-02T20:32:22.711Z,98853.63
2022-08-02T20:34:53.358Z,98847.38
2022-08-02T20:38:02.285Z,98851.66
2022-08-02T20:40:16.601Z,98855.75
2022-08-02T20:42:47.975Z,98857.16
2022-08-02T20:45:17.769Z,98851.50
2022-08-02T20:47:50.775Z,98846.38
2022-08-02T20:50:33.297Z,98848.03
2022-08-02T20:53:04.047Z,98856.25
2022-08-02T20:55:36.609Z,98853.22
2022-08-02T20:58:07.098Z,98848.50
2022-08-02T21:00:41.628Z,98846.59
2022-08-02T21:03:11.761Z,98853.06
2022-08-02T21:05:55.854Z,98857.38
2022-08-02T21:08:25.772Z,98861.09
2022-08-02T21:10:57.869Z,98860.66
2022-08-02T21:13:27.656Z,98855.88
2022-08-02T21:18:46.845Z,98861.41
2022-08-02T21:21:16.583Z,98860.41
2022-08-02T21:23:48.742Z,98864.47
2022-08-02T21:26:28.100Z,98868.88
2022-08-02T21:29:00.790Z,98868.63
2022-08-02T21:31:35.631Z,98871.66
2022-08-02T21:34:19.246Z,98861.78
2022-08-02T21:36:51.619Z,98865.94
2022-08-02T21:39:21.292Z,98864.06
2022-08-02T21:41:53.244Z,98869.00
2022-08-02T21:44:23.177Z,98869.84
2022-08-02T21:46:53.952Z,98873.09
2022-08-02T21:49:41.125Z,98863.66
2022-08-02T21:52:13.957Z,98872.28
2022-08-02T21:54:45.508Z,98870.13
2022-08-02T21:57:18.425Z,98873.06
2022-08-02T21:59:48.479Z,98869.53
2022-08-02T22:02:30.550Z,98868.81
2022-08-02T22:05:02.642Z,98874.81
2022-08-02T22:07:38.457Z,98875.09
2022-08-02T22:10:09.496Z,98866.47
2022-08-02T22:12:41.553Z,98880.00
2022-08-02T22:15:11.684Z,98878.63
2022-08-02T22:20:30.284Z,98884.66
2022-08-02T22:22:59.627Z,98888.16
2022-08-02T22:25:36.835Z,98884.41
2022-08-02T22:28:39.025Z,98887.16
2022-08-02T22:31:04.441Z,98892.53
2022-08-02T22:34:00.914Z,98887.97
2022-08-02T22:36:31.357Z,98896.31
2022-08-02T22:39:00.752Z,98893.88
2022-08-02T22:44:22.535Z,98892.25
2022-08-02T22:46:51.967Z,98890.63
2022-08-02T22:49:37.657Z,98894.16
2022-08-02T22:52:10.919Z,98886.88
2022-08-02T22:54:40.233Z,98895.78
2022-08-02T22:57:11.312Z,98889.06
2022-08-02T22:58:41.285Z,98801.50
2022-08-02T22:59:09.693Z,98896.84
2022-08-02T22:59:10.496Z,98878.41
2022-08-02T22:59:12.383Z,98854.03
2022-08-02T22:59:43.492Z,98895.47
2022-08-02T23:02:12.879Z,98897.13
2022-08-02T23:04:42.178Z,98892.00
2022-08-02T23:07:11.478Z,98901.97
2022-08-02T23:09:40.830Z,98893.06
2022-08-02T23:12:12.808Z,98899.00
2022-08-02T23:14:44.702Z,98903.59
2022-08-02T23:17:26.494Z,98907.09
2022-08-02T23:19:55.829Z,98908.41
2022-08-02T23:22:29.854Z,98907.09
2022-08-02T23:25:02.047Z,98911.38
2022-08-02T23:27:31.368Z,98907.88
2022-08-02T23:30:03.679Z,98908.41
2022-08-02T23:32:33.104Z,98914.88
2022-08-02T23:35:02.573Z,98913.22
2022-08-02T23:37:59.554Z,98904.31
2022-08-02T23:40:31.432Z,98914.22
2022-08-02T23:43:13.760Z,98912.59
2022-08-02T23:45:47.890Z,98910.94
2022-08-02T23:48:17.328Z,98910.44
2022-08-02T23:50:47.880Z,98907.25
2022-08-02T23:53:17.156Z,98910.78
2022-08-02T23:55:46.465Z,98912.31
2022-08-02T23:58:15.742Z,98910.94
